sensor_id;sensor_type;location;lat;lon;timestamp;pressure;altitude;pressure_sealevel;temperature;humidity
50226;BME280;36113;50.742;6.432;2023-06-14T00:01:09;98495.84;;;16.68;48.47
50226;BME280;36113;50.742;6.432;2023-06-14T00:03:35;98535.91;;;16.78;48.90
50226;BME280;36113;50.742;6.432;2023-06-14T00:06:00;98447.44;;;16.15;49.06
50226;BME280;36113;50.742;6.432;2023-06-14T00:08:25;98530.88;;;16.63;49.00
50226;BME280;36113;50.742;6.432;2023-06-14T00:10:51;98486.72;;;16.33;49.01
50226;BME280;36113;50.742;6.432;2023-06-14T00:13:16;98523.56;;;16.49;49.90
50226;BME280;36113;50.742;6.432;2023-06-14T00:15:41;98537.97;;;16.64;50.15
50226;BME280;36113;50.742;6.432;2023-06-14T00:18:08;98530.94;;;16.40;50.75
50226;BME280;36113;50.742;6.432;2023-06-14T00:20:34;98541.75;;;16.37;50.81
50226;BME280;36113;50.742;6.432;2023-06-14T00:23:00;98540.63;;;16.38;50.96
50226;BME280;36113;50.742;6.432;2023-06-14T00:25:26;98506.63;;;16.07;51.32
50226;BME280;36113;50.742;6.432;2023-06-14T00:27:52;98531.69;;;16.23;51.46
50226;BME280;36113;50.742;6.432;2023-06-14T00:30:18;98534.34;;;16.06;51.43
50226;BME280;36113;50.742;6.432;2023-06-14T00:32:44;98504.59;;;15.90;51.95
50226;BME280;36113;50.742;6.432;2023-06-14T00:35:10;98538.75;;;16.16;51.67
50226;BME280;36113;50.742;6.432;2023-06-14T00:37:36;98495.00;;;15.79;51.50
50226;BME280;36113;50.742;6.432;2023-06-14T00:40:02;98539.28;;;15.95;51.44
50226;BME280;36113;50.742;6.432;2023-06-14T00:42:29;98529.06;;;15.87;51.70
50226;BME280;36113;50.742;6.432;2023-06-14T00:44:54;98534.44;;;15.92;51.93
50226;BME280;36113;50.742;6.432;2023-06-14T00:47:20;98537.78;;;15.89;51.42
50226;BME280;36113;50.742;6.432;2023-06-14T00:49:50;98523.97;;;15.71;52.02
50226;BME280;36113;50.742;6.432;2023-06-14T00:52:18;98535.50;;;15.82;51.44
50226;BME280;36113;50.742;6.432;2023-06-14T00:54:44;98538.88;;;15.79;51.38
50226;BME280;36113;50.742;6.432;2023-06-14T00:57:10;98505.56;;;15.49;51.87
50226;BME280;36113;50.742;6.432;2023-06-14T00:59:47;98504.84;;;15.35;52.67
50226;BME280;36113;50.742;6.432;2023-06-14T01:02:13;98540.16;;;15.59;52.57
50226;BME280;36113;50.742;6.432;2023-06-14T01:04:44;98453.47;;;14.96;52.99
50226;BME280;36113;50.742;6.432;2023-06-14T01:12:39;98520.47;;;15.35;53.37
50226;BME280;36113;50.742;6.432;2023-06-14T01:15:07;98534.97;;;15.35;53.84
50226;BME280;36113;50.742;6.432;2023-06-14T01:17:33;98537.28;;;15.42;53.28
50226;BME280;36113;50.742;6.432;2023-06-14T01:20:01;98540.81;;;15.42;52.74
50226;BME280;36113;50.742;6.432;2023-06-14T01:22:28;98535.53;;;15.46;52.38
50226;BME280;36113;50.742;6.432;2023-06-14T01:24:53;98526.44;;;15.37;52.62
50226;BME280;36113;50.742;6.432;2023-06-14T01:27:22;98541.19;;;15.49;53.23
50226;BME280;36113;50.742;6.432;2023-06-14T01:29:50;98543.13;;;15.49;52.83
50226;BME280;36113;50.742;6.432;2023-06-14T01:32:17;98513.28;;;15.25;53.07
50226;BME280;36113;50.742;6.432;2023-06-14T01:34:43;98531.09;;;15.36;53.37
50226;BME280;36113;50.742;6.432;2023-06-14T01:37:10;98501.38;;;15.07;53.36
50226;BME280;36113;50.742;6.432;2023-06-14T01:39:36;98521.25;;;15.13;53.70
50226;BME280;36113;50.742;6.432;2023-06-14T01:42:02;98542.59;;;15.24;54.30
50226;BME280;36113;50.742;6.432;2023-06-14T01:44:29;98539.06;;;15.24;54.30
50226;BME280;36113;50.742;6.432;2023-06-14T01:46:55;98542.31;;;15.12;53.76
50226;BME280;36113;50.742;6.432;2023-06-14T01:49:21;98540.84;;;15.06;54.13
50226;BME280;36113;50.742;6.432;2023-06-14T01:51:46;98543.25;;;15.07;53.83
50226;BME280;36113;50.742;6.432;2023-06-14T01:54:11;98508.94;;;14.74;53.95
50226;BME280;36113;50.742;6.432;2023-06-14T01:56:37;98546.13;;;14.88;54.18
50226;BME280;36113;50.742;6.432;2023-06-14T01:59:02;98561.34;;;14.95;54.30
50226;BME280;36113;50.742;6.432;2023-06-14T02:01:27;98545.75;;;14.81;54.58
50226;BME280;36113;50.742;6.432;2023-06-14T02:03:53;98559.63;;;14.71;54.96
50226;BME280;36113;50.742;6.432;2023-06-14T02:06:18;98542.81;;;14.64;54.62
50226;BME280;36113;50.742;6.432;2023-06-14T02:08:44;98560.44;;;14.72;55.18
50226;BME280;36113;50.742;6.432;2023-06-14T02:11:10;98551.72;;;14.69;55.30
50226;BME280;36113;50.742;6.432;2023-06-14T02:13:35;98557.41;;;14.73;55.52
50226;BME280;36113;50.742;6.432;2023-06-14T02:16:01;98556.38;;;14.69;55.65
50226;BME280;36113;50.742;6.432;2023-06-14T02:18:26;98500.63;;;14.23;55.87
50226;BME280;36113;50.742;6.432;2023-06-14T02:20:52;98562.88;;;14.59;55.95
50226;BME280;36113;50.742;6.432;2023-06-14T02:23:17;98509.03;;;14.27;56.06
50226;BME280;36113;50.742;6.432;2023-06-14T02:25:43;98522.19;;;14.39;55.82
50226;BME280;36113;50.742;6.432;2023-06-14T02:28:09;98569.75;;;14.57;55.93
50226;BME280;36113;50.742;6.432;2023-06-14T02:30:35;98555.75;;;14.44;56.35
50226;BME280;36113;50.742;6.432;2023-06-14T02:33:00;98581.06;;;14.50;56.61
50226;BME280;36113;50.742;6.432;2023-06-14T02:35:25;98524.53;;;14.18;56.33
50226;BME280;36113;50.742;6.432;2023-06-14T02:37:52;98576.34;;;14.56;56.38
50226;BME280;36113;50.742;6.432;2023-06-14T02:40:18;98552.78;;;14.41;55.95
50226;BME280;36113;50.742;6.432;2023-06-14T02:42:44;98573.31;;;14.57;55.56
50226;BME280;36113;50.742;6.432;2023-06-14T02:45:09;98565.75;;;14.49;56.23
50226;BME280;36113;50.742;6.432;2023-06-14T02:47:35;98528.47;;;14.25;56.23
50226;BME280;36113;50.742;6.432;2023-06-14T02:50:00;98575.41;;;14.46;56.38
50226;BME280;36113;50.742;6.432;2023-06-14T02:52:26;98531.03;;;14.22;56.18
50226;BME280;36113;50.742;6.432;2023-06-14T02:54:51;98575.50;;;14.41;56.07
50226;BME280;36113;50.742;6.432;2023-06-14T02:57:17;98577.91;;;14.43;56.27
50226;BME280;36113;50.742;6.432;2023-06-14T02:59:42;98566.34;;;14.32;56.26
50226;BME280;36113;50.742;6.432;2023-06-14T03:02:07;98577.41;;;14.41;56.17
50226;BME280;36113;50.742;6.432;2023-06-14T03:04:33;98582.56;;;14.42;56.46
50226;BME280;36113;50.742;6.432;2023-06-14T03:07:02;98571.41;;;14.39;56.18
50226;BME280;36113;50.742;6.432;2023-06-14T03:09:34;98570.44;;;14.35;56.07
50226;BME280;36113;50.742;6.432;2023-06-14T03:12:00;98547.41;;;14.22;55.35
50226;BME280;36113;50.742;6.432;2023-06-14T03:14:25;98545.19;;;14.24;55.30
50226;BME280;36113;50.742;6.432;2023-06-14T03:16:50;98577.41;;;14.41;55.62
50226;BME280;36113;50.742;6.432;2023-06-14T03:19:16;98567.78;;;14.29;55.54
50226;BME280;36113;50.742;6.432;2023-06-14T03:21:41;98577.41;;;14.41;55.47
50226;BME280;36113;50.742;6.432;2023-06-14T03:24:09;98564.44;;;14.33;55.22
50226;BME280;36113;50.742;6.432;2023-06-14T03:26:34;98477.06;;;13.67;55.98
50226;BME280;36113;50.742;6.432;2023-06-14T03:29:02;98581.25;;;14.26;55.92
50226;BME280;36113;50.742;6.432;2023-06-14T03:31:29;98571.22;;;14.21;56.17
50226;BME280;36113;50.742;6.432;2023-06-14T03:33:58;98579.72;;;14.34;55.81
50226;BME280;36113;50.742;6.432;2023-06-14T03:36:23;98535.34;;;14.09;55.97
50226;BME280;36113;50.742;6.432;2023-06-14T03:38:48;98587.22;;;14.28;56.45
50226;BME280;36113;50.742;6.432;2023-06-14T03:41:13;98557.09;;;14.00;56.50
50226;BME280;36113;50.742;6.432;2023-06-14T03:43:39;98583.38;;;14.29;56.46
50226;BME280;36113;50.742;6.432;2023-06-14T03:46:04;98601.81;;;14.37;56.11
50226;BME280;36113;50.742;6.432;2023-06-14T03:48:30;98589.56;;;14.35;56.17
50226;BME280;36113;50.742;6.432;2023-06-14T03:50:55;98568.25;;;14.18;56.32
50226;BME280;36113;50.742;6.432;2023-06-14T03:53:21;98588.72;;;14.34;56.38
50226;BME280;36113;50.742;6.432;2023-06-14T03:55:49;98605.25;;;14.43;56.30
50226;BME280;36113;50.742;6.432;2023-06-14T03:58:15;98602.44;;;14.48;56.52
50226;BME280;36113;50.742;6.432;2023-06-14T04:00:40;98576.28;;;14.28;56.81
50226;BME280;36113;50.742;6.432;2023-06-14T04:03:06;98610.44;;;14.44;56.75
50226;BME280;36113;50.742;6.432;2023-06-14T04:05:31;98607.81;;;14.53;56.96
50226;BME280;36113;50.742;6.432;2023-06-14T04:07:57;98569.59;;;14.34;56.80
50226;BME280;36113;50.742;6.432;2023-06-14T04:10:23;98615.75;;;14.55;56.64
50226;BME280;36113;50.742;6.432;2023-06-14T04:12:49;98613.63;;;14.65;56.80
50226;BME280;36113;50.742;6.432;2023-06-14T04:15:15;98554.72;;;14.40;56.48
50226;BME280;36113;50.742;6.432;2023-06-14T04:17:40;98615.88;;;14.77;56.48
50226;BME280;36113;50.742;6.432;2023-06-14T04:20:06;98617.81;;;14.77;56.87
50226;BME280;36113;50.742;6.432;2023-06-14T04:22:34;98597.41;;;14.69;56.75
50226;BME280;36113;50.742;6.432;2023-06-14T04:24:59;98623.28;;;14.90;56.75
50226;BME280;36113;50.742;6.432;2023-06-14T04:27:28;98613.94;;;14.92;56.52
50226;BME280;36113;50.742;6.432;2023-06-14T04:29:56;98571.75;;;14.79;55.75
50226;BME280;36113;50.742;6.432;2023-06-14T04:32:28;98610.84;;;15.21;55.44
50226;BME280;36113;50.742;6.432;2023-06-14T04:34:59;98605.47;;;15.29;55.32
50226;BME280;36113;50.742;6.432;2023-06-14T04:37:27;98615.16;;;15.49;55.04
50226;BME280;36113;50.742;6.432;2023-06-14T04:39:54;98571.13;;;15.23;55.01
50226;BME280;36113;50.742;6.432;2023-06-14T04:42:21;98574.09;;;15.36;54.36
50226;BME280;36113;50.742;6.432;2023-06-14T04:44:50;98617.66;;;15.73;53.60
50226;BME280;36113;50.742;6.432;2023-06-14T04:47:17;98614.88;;;15.87;52.68
50226;BME280;36113;50.742;6.432;2023-06-14T04:49:42;98597.50;;;15.92;52.03
50226;BME280;36113;50.742;6.432;2023-06-14T04:52:08;98621.75;;;16.30;51.52
50226;BME280;36113;50.742;6.432;2023-06-14T04:54:34;98620.22;;;16.46;51.34
50226;BME280;36113;50.742;6.432;2023-06-14T04:57:04;98621.56;;;16.58;50.82
50226;BME280;36113;50.742;6.432;2023-06-14T04:59:29;98585.50;;;16.42;50.28
50226;BME280;36113;50.742;6.432;2023-06-14T05:01:58;98583.94;;;16.58;50.89
50226;BME280;36113;50.742;6.432;2023-06-14T05:04:23;98582.22;;;16.71;53.83
50226;BME280;36113;50.742;6.432;2023-06-14T05:06:50;98627.41;;;16.96;55.76
50226;BME280;36113;50.742;6.432;2023-06-14T05:09:16;98631.66;;;17.11;54.83
50226;BME280;36113;50.742;6.432;2023-06-14T05:11:44;98642.84;;;17.23;53.14
50226;BME280;36113;50.742;6.432;2023-06-14T05:14:13;98603.72;;;17.17;53.40
50226;BME280;36113;50.742;6.432;2023-06-14T05:16:39;98623.66;;;17.49;53.64
50226;BME280;36113;50.742;6.432;2023-06-14T05:19:05;98643.84;;;17.62;52.78
50226;BME280;36113;50.742;6.432;2023-06-14T05:21:31;98632.41;;;17.60;53.07
50226;BME280;36113;50.742;6.432;2023-06-14T05:23:58;98600.69;;;17.36;53.46
50226;BME280;36113;50.742;6.432;2023-06-14T05:26:24;98558.44;;;17.06;53.53
50226;BME280;36113;50.742;6.432;2023-06-14T05:28:54;98643.91;;;17.88;53.17
50226;BME280;36113;50.742;6.432;2023-06-14T05:31:22;98568.34;;;17.51;49.85
50226;BME280;36113;50.742;6.432;2023-06-14T05:33:47;98645.97;;;18.17;49.27
50226;BME280;36113;50.742;6.432;2023-06-14T05:36:13;98638.06;;;18.25;48.49
50226;BME280;36113;50.742;6.432;2023-06-14T05:38:38;98639.16;;;18.32;46.44
50226;BME280;36113;50.742;6.432;2023-06-14T05:41:04;98652.72;;;18.46;46.13
50226;BME280;36113;50.742;6.432;2023-06-14T05:43:29;98643.88;;;18.32;47.07
50226;BME280;36113;50.742;6.432;2023-06-14T05:45:54;98648.06;;;18.29;47.34
50226;BME280;36113;50.742;6.432;2023-06-14T05:48:20;98637.69;;;18.44;47.40
50226;BME280;36113;50.742;6.432;2023-06-14T05:50:45;98650.44;;;18.48;45.80
50226;BME280;36113;50.742;6.432;2023-06-14T05:53:10;98634.31;;;18.38;46.43
50226;BME280;36113;50.742;6.432;2023-06-14T05:55:36;98627.44;;;18.53;46.74
50226;BME280;36113;50.742;6.432;2023-06-14T05:58:01;98656.22;;;18.81;46.54
50226;BME280;36113;50.742;6.432;2023-06-14T06:00:27;98649.91;;;18.81;46.24
50226;BME280;36113;50.742;6.432;2023-06-14T06:02:52;98684.88;;;19.19;45.30
50226;BME280;36113;50.742;6.432;2023-06-14T06:05:18;98668.13;;;19.03;43.98
50226;BME280;36113;50.742;6.432;2023-06-14T06:07:43;98655.41;;;18.81;43.95
50226;BME280;36113;50.742;6.432;2023-06-14T06:10:11;98661.19;;;18.88;44.75
50226;BME280;36113;50.742;6.432;2023-06-14T06:12:37;98700.47;;;19.15;45.06
50226;BME280;36113;50.742;6.432;2023-06-14T06:15:02;98652.06;;;19.05;44.60
50226;BME280;36113;50.742;6.432;2023-06-14T06:17:28;98648.91;;;19.24;44.14
50226;BME280;36113;50.742;6.432;2023-06-14T06:19:53;98688.63;;;19.53;44.07
50226;BME280;36113;50.742;6.432;2023-06-14T06:22:19;98674.88;;;19.44;43.69
50226;BME280;36113;50.742;6.432;2023-06-14T06:24:44;98698.97;;;19.56;43.65
50226;BME280;36113;50.742;6.432;2023-06-14T06:27:09;98700.53;;;19.65;43.11
50226;BME280;36113;50.742;6.432;2023-06-14T06:29:35;98700.03;;;19.63;42.82
50226;BME280;36113;50.742;6.432;2023-06-14T06:32:01;98694.25;;;19.56;41.79
50226;BME280;36113;50.742;6.432;2023-06-14T06:34:27;98701.09;;;19.50;41.86
50226;BME280;36113;50.742;6.432;2023-06-14T06:36:52;98703.97;;;19.62;42.38
50226;BME280;36113;50.742;6.432;2023-06-14T06:39:18;98703.81;;;19.59;42.25
50226;BME280;36113;50.742;6.432;2023-06-14T06:41:43;98680.34;;;19.23;42.33
50226;BME280;36113;50.742;6.432;2023-06-14T06:44:08;98707.72;;;19.58;42.58
50226;BME280;36113;50.742;6.432;2023-06-14T06:46:36;98681.66;;;19.76;41.86
50226;BME280;36113;50.742;6.432;2023-06-14T06:49:05;98689.22;;;19.88;41.78
50226;BME280;36113;50.742;6.432;2023-06-14T06:51:31;98723.75;;;20.15;41.13
50226;BME280;36113;50.742;6.432;2023-06-14T06:53:56;98639.69;;;19.92;41.56
50226;BME280;36113;50.742;6.432;2023-06-14T06:56:21;98721.53;;;20.63;40.58
50226;BME280;36113;50.742;6.432;2023-06-14T06:58:50;98734.03;;;20.27;40.32
50226;BME280;36113;50.742;6.432;2023-06-14T07:01:17;98694.84;;;19.71;40.57
50226;BME280;36113;50.742;6.432;2023-06-14T07:03:42;98704.47;;;19.56;41.07
50226;BME280;36113;50.742;6.432;2023-06-14T07:06:08;98697.28;;;19.63;40.80
50226;BME280;36113;50.742;6.432;2023-06-14T07:08:33;98739.50;;;20.15;40.70
50226;BME280;36113;50.742;6.432;2023-06-14T07:10:59;98710.56;;;19.70;42.39
50226;BME280;36113;50.742;6.432;2023-06-14T07:13:24;98743.53;;;19.28;42.76
50226;BME280;36113;50.742;6.432;2023-06-14T07:15:50;98710.47;;;18.81;43.98
50226;BME280;36113;50.742;6.432;2023-06-14T07:18:18;98746.13;;;19.33;43.78
50226;BME280;36113;50.742;6.432;2023-06-14T07:20:43;98747.75;;;19.94;43.81
50226;BME280;36113;50.742;6.432;2023-06-14T07:23:09;98721.81;;;19.56;42.32
50226;BME280;36113;50.742;6.432;2023-06-14T07:25:34;98678.72;;;19.52;42.66
50226;BME280;36113;50.742;6.432;2023-06-14T07:27:59;98750.53;;;20.15;41.78
50226;BME280;36113;50.742;6.432;2023-06-14T07:30:25;98750.19;;;20.37;42.29
50226;BME280;36113;50.742;6.432;2023-06-14T07:32:52;98720.81;;;20.12;40.11
50226;BME280;36113;50.742;6.432;2023-06-14T07:35:18;98750.44;;;20.23;40.16
50226;BME280;36113;50.742;6.432;2023-06-14T07:37:43;98707.25;;;20.07;39.65
50226;BME280;36113;50.742;6.432;2023-06-14T07:40:09;98727.28;;;20.58;39.58
50226;BME280;36113;50.742;6.432;2023-06-14T07:42:35;98754.47;;;20.68;38.01
50226;BME280;36113;50.742;6.432;2023-06-14T07:45:01;98747.88;;;20.60;37.94
50226;BME280;36113;50.742;6.432;2023-06-14T07:47:27;98736.84;;;20.60;37.46
50226;BME280;36113;50.742;6.432;2023-06-14T07:49:52;98732.44;;;20.93;38.86
50226;BME280;36113;50.742;6.432;2023-06-14T07:52:17;98721.41;;;21.05;37.99
50226;BME280;36113;50.742;6.432;2023-06-14T07:54:43;98748.88;;;20.89;38.00
50226;BME280;36113;50.742;6.432;2023-06-14T07:57:08;98732.19;;;20.85;38.53
50226;BME280;36113;50.742;6.432;2023-06-14T07:59:33;98753.31;;;21.27;39.19
50226;BME280;36113;50.742;6.432;2023-06-14T08:01:59;98724.06;;;21.38;38.71
50226;BME280;36113;50.742;6.432;2023-06-14T08:04:24;98739.56;;;21.64;38.40
50226;BME280;36113;50.742;6.432;2023-06-14T08:06:50;98636.06;;;21.16;38.74
50226;BME280;36113;50.742;6.432;2023-06-14T08:09:15;98726.34;;;21.98;39.24
50226;BME280;36113;50.742;6.432;2023-06-14T08:11:41;98755.03;;;22.18;37.19
50226;BME280;36113;50.742;6.432;2023-06-14T08:14:06;98722.44;;;21.99;38.53
50226;BME280;36113;50.742;6.432;2023-06-14T08:16:32;98762.34;;;22.50;38.79
50226;BME280;36113;50.742;6.432;2023-06-14T08:18:57;98756.16;;;22.69;37.89
50226;BME280;36113;50.742;6.432;2023-06-14T08:21:22;98755.09;;;22.74;37.02
50226;BME280;36113;50.742;6.432;2023-06-14T08:23:48;98756.75;;;22.63;35.31
50226;BME280;36113;50.742;6.432;2023-06-14T08:26:14;98759.06;;;22.61;35.99
50226;BME280;36113;50.742;6.432;2023-06-14T08:28:39;98760.31;;;22.63;35.27
50226;BME280;36113;50.742;6.432;2023-06-14T08:31:05;98763.84;;;22.48;34.34
50226;BME280;36113;50.742;6.432;2023-06-14T08:33:30;98723.41;;;21.66;35.55
50226;BME280;36113;50.742;6.432;2023-06-14T08:35:58;98759.03;;;21.67;35.57
50226;BME280;36113;50.742;6.432;2023-06-14T08:38:23;98763.16;;;21.74;36.18
50226;BME280;36113;50.742;6.432;2023-06-14T08:40:50;98765.09;;;22.10;35.89
50226;BME280;36113;50.742;6.432;2023-06-14T08:43:16;98760.00;;;22.24;34.52
50226;BME280;36113;50.742;6.432;2023-06-14T08:45:41;98761.81;;;22.33;35.25
50226;BME280;36113;50.742;6.432;2023-06-14T08:48:07;98749.84;;;22.16;35.21
50226;BME280;36113;50.742;6.432;2023-06-14T08:50:34;98752.13;;;21.61;35.62
50226;BME280;36113;50.742;6.432;2023-06-14T08:53:02;98719.72;;;21.62;36.28
50226;BME280;36113;50.742;6.432;2023-06-14T08:55:29;98763.50;;;21.97;35.64
50226;BME280;36113;50.742;6.432;2023-06-14T08:57:56;98732.28;;;21.35;35.20
50226;BME280;36113;50.742;6.432;2023-06-14T09:00:25;98733.56;;;21.49;35.74
50226;BME280;36113;50.742;6.432;2023-06-14T09:02:52;98759.72;;;21.77;34.57
50226;BME280;36113;50.742;6.432;2023-06-14T09:05:23;98726.59;;;21.31;35.12
50226;BME280;36113;50.742;6.432;2023-06-14T09:07:48;98765.13;;;21.85;34.15
50226;BME280;36113;50.742;6.432;2023-06-14T09:10:15;98764.38;;;22.13;33.19
50226;BME280;36113;50.742;6.432;2023-06-14T09:12:41;98725.63;;;22.13;33.63
50226;BME280;36113;50.742;6.432;2023-06-14T09:15:08;98763.06;;;22.47;32.61
50226;BME280;36113;50.742;6.432;2023-06-14T09:17:34;98779.28;;;22.61;32.67
50226;BME280;36113;50.742;6.432;2023-06-14T09:20:01;98772.84;;;22.73;33.20
50226;BME280;36113;50.742;6.432;2023-06-14T09:22:29;98756.34;;;22.77;32.63
50226;BME280;36113;50.742;6.432;2023-06-14T09:24:55;98777.59;;;22.72;32.19
50226;BME280;36113;50.742;6.432;2023-06-14T09:27:21;98779.78;;;22.95;33.55
50226;BME280;36113;50.742;6.432;2023-06-14T09:29:46;98739.09;;;22.83;33.41
50226;BME280;36113;50.742;6.432;2023-06-14T09:32:11;98757.75;;;22.70;32.64
50226;BME280;36113;50.742;6.432;2023-06-14T09:34:36;98744.47;;;22.48;34.09
50226;BME280;36113;50.742;6.432;2023-06-14T09:37:02;98772.97;;;22.77;33.19
50226;BME280;36113;50.742;6.432;2023-06-14T09:39:27;98776.88;;;22.76;33.61
50226;BME280;36113;50.742;6.432;2023-06-14T09:41:53;98715.91;;;22.76;33.90
50226;BME280;36113;50.742;6.432;2023-06-14T09:44:19;98765.28;;;23.30;33.87
50226;BME280;36113;50.742;6.432;2023-06-14T09:46:45;98749.78;;;23.29;33.37
50226;BME280;36113;50.742;6.432;2023-06-14T09:49:11;98759.84;;;23.49;32.92
50226;BME280;36113;50.742;6.432;2023-06-14T09:51:43;98760.09;;;23.28;31.04
50226;BME280;36113;50.742;6.432;2023-06-14T09:54:15;98762.34;;;23.23;32.53
50226;BME280;36113;50.742;6.432;2023-06-14T09:56:42;98762.84;;;23.44;30.99
50226;BME280;36113;50.742;6.432;2023-06-14T09:59:09;98726.25;;;23.07;30.80
50226;BME280;36113;50.742;6.432;2023-06-14T10:01:41;98749.97;;;23.52;30.78
50226;BME280;36113;50.742;6.432;2023-06-14T10:04:09;98759.38;;;23.79;31.28
50226;BME280;36113;50.742;6.432;2023-06-14T10:06:45;98754.88;;;23.90;30.50
50226;BME280;36113;50.742;6.432;2023-06-14T10:09:11;98745.66;;;23.86;31.34
50226;BME280;36113;50.742;6.432;2023-06-14T10:11:37;98749.91;;;23.80;30.44
50226;BME280;36113;50.742;6.432;2023-06-14T10:14:09;98748.97;;;23.92;31.30
50226;BME280;36113;50.742;6.432;2023-06-14T10:16:41;98754.06;;;23.74;29.66
50226;BME280;36113;50.742;6.432;2023-06-14T10:19:19;98675.03;;;23.01;30.22
50226;BME280;36113;50.742;6.432;2023-06-14T10:26:57;98740.38;;;22.17;30.92
50226;BME280;36113;50.742;6.432;2023-06-14T10:29:23;98750.88;;;22.36;30.24
50226;BME280;36113;50.742;6.432;2023-06-14T10:31:50;98734.38;;;22.27;30.54
50226;BME280;36113;50.742;6.432;2023-06-14T10:34:23;98760.72;;;22.78;29.55
50226;BME280;36113;50.742;6.432;2023-06-14T10:37:13;98753.91;;;23.19;29.26
50226;BME280;36113;50.742;6.432;2023-06-14T10:39:39;98747.66;;;23.38;28.52
50226;BME280;36113;50.742;6.432;2023-06-14T10:42:06;98745.00;;;22.98;28.22
50226;BME280;36113;50.742;6.432;2023-06-14T10:44:54;98740.06;;;23.03;28.22
50226;BME280;36113;50.742;6.432;2023-06-14T10:47:31;98741.19;;;23.66;27.94
50226;BME280;36113;50.742;6.432;2023-06-14T10:50:06;98752.22;;;23.14;28.15
50226;BME280;36113;50.742;6.432;2023-06-14T10:52:34;98726.03;;;22.40;29.42
50226;BME280;36113;50.742;6.432;2023-06-14T10:55:02;98754.44;;;23.09;29.39
50226;BME280;36113;50.742;6.432;2023-06-14T10:57:29;98749.28;;;23.39;29.04
50226;BME280;36113;50.742;6.432;2023-06-14T10:59:58;98714.09;;;23.43;27.73
50226;BME280;36113;50.742;6.432;2023-06-14T11:02:48;98709.75;;;23.78;27.41
50226;BME280;36113;50.742;6.432;2023-06-14T11:05:23;98747.16;;;24.19;27.39
50226;BME280;36113;50.742;6.432;2023-06-14T11:10:54;98706.81;;;22.91;26.25
50226;BME280;36113;50.742;6.432;2023-06-14T11:13:24;98747.94;;;22.89;26.86
50226;BME280;36113;50.742;6.432;2023-06-14T11:15:50;98683.03;;;22.74;28.20
50226;BME280;36113;50.742;6.432;2023-06-14T11:18:18;98749.09;;;23.32;27.67
50226;BME280;36113;50.742;6.432;2023-06-14T11:20:46;98730.75;;;23.43;27.36
50226;BME280;36113;50.742;6.432;2023-06-14T11:23:11;98739.22;;;23.66;27.54
50226;BME280;36113;50.742;6.432;2023-06-14T11:25:36;98694.97;;;23.89;27.83
50226;BME280;36113;50.742;6.432;2023-06-14T11:28:02;98731.41;;;24.62;27.03
50226;BME280;36113;50.742;6.432;2023-06-14T11:30:27;98732.19;;;24.82;25.96
50226;BME280;36113;50.742;6.432;2023-06-14T11:32:53;98696.72;;;24.75;26.33
50226;BME280;36113;50.742;6.432;2023-06-14T11:35:21;98728.38;;;25.13;26.36
50226;BME280;36113;50.742;6.432;2023-06-14T11:37:48;98725.56;;;25.33;26.46
50226;BME280;36113;50.742;6.432;2023-06-14T11:40:14;98738.47;;;25.22;25.39
50226;BME280;36113;50.742;6.432;2023-06-14T11:42:41;98724.81;;;25.36;25.28
50226;BME280;36113;50.742;6.432;2023-06-14T11:45:11;98735.59;;;25.18;25.47
50226;BME280;36113;50.742;6.432;2023-06-14T11:47:38;98734.09;;;25.21;24.99
50226;BME280;36113;50.742;6.432;2023-06-14T11:50:06;98725.88;;;24.85;25.01
50226;BME280;36113;50.742;6.432;2023-06-14T11:52:32;98731.25;;;24.16;26.07
50226;BME280;36113;50.742;6.432;2023-06-14T11:54:58;98729.38;;;23.53;26.94
50226;BME280;36113;50.742;6.432;2023-06-14T11:57:24;98702.28;;;23.46;27.54
50226;BME280;36113;50.742;6.432;2023-06-14T11:59:49;98732.53;;;24.03;27.61
50226;BME280;36113;50.742;6.432;2023-06-14T12:02:19;98683.13;;;23.41;27.42
50226;BME280;36113;50.742;6.432;2023-06-14T12:04:48;98725.75;;;24.00;27.50
50226;BME280;36113;50.742;6.432;2023-06-14T12:07:14;98692.19;;;24.28;26.92
50226;BME280;36113;50.742;6.432;2023-06-14T12:12:26;98727.34;;;24.79;26.16
50226;BME280;36113;50.742;6.432;2023-06-14T12:14:52;98740.53;;;24.82;26.34
50226;BME280;36113;50.742;6.432;2023-06-14T12:17:18;98734.09;;;24.78;25.50
50226;BME280;36113;50.742;6.432;2023-06-14T12:19:45;98679.19;;;24.71;26.26
50226;BME280;36113;50.742;6.432;2023-06-14T12:22:11;98718.44;;;25.35;25.37
50226;BME280;36113;50.742;6.432;2023-06-14T12:24:37;98719.16;;;25.09;25.69
50226;BME280;36113;50.742;6.432;2023-06-14T12:27:04;98708.84;;;24.87;25.38
50226;BME280;36113;50.742;6.432;2023-06-14T12:29:30;98705.69;;;25.11;25.89
50226;BME280;36113;50.742;6.432;2023-06-14T12:31:56;98729.06;;;25.30;25.29
50226;BME280;36113;50.742;6.432;2023-06-14T12:34:23;98729.88;;;25.53;25.32
50226;BME280;36113;50.742;6.432;2023-06-14T12:36:50;98726.38;;;25.33;26.30
50226;BME280;36113;50.742;6.432;2023-06-14T12:39:16;98728.47;;;24.35;27.31
50226;BME280;36113;50.742;6.432;2023-06-14T12:41:41;98732.50;;;24.38;28.43
50226;BME280;36113;50.742;6.432;2023-06-14T12:44:07;98724.09;;;24.54;28.11
50226;BME280;36113;50.742;6.432;2023-06-14T12:46:32;98730.53;;;24.58;28.81
50226;BME280;36113;50.742;6.432;2023-06-14T12:48:58;98723.69;;;25.17;28.50
50226;BME280;36113;50.742;6.432;2023-06-14T12:51:23;98722.41;;;25.61;27.62
50226;BME280;36113;50.742;6.432;2023-06-14T12:53:50;98700.22;;;25.91;27.12
50226;BME280;36113;50.742;6.432;2023-06-14T12:56:16;98708.94;;;25.90;26.31
50226;BME280;36113;50.742;6.432;2023-06-14T12:58:42;98693.25;;;25.05;26.67
50226;BME280;36113;50.742;6.432;2023-06-14T13:01:07;98716.84;;;24.69;28.69
50226;BME280;36113;50.742;6.432;2023-06-14T13:03:32;98726.41;;;24.91;28.49
50226;BME280;36113;50.742;6.432;2023-06-14T13:05:59;98721.16;;;25.32;27.47
50226;BME280;36113;50.742;6.432;2023-06-14T13:08:24;98715.84;;;25.73;27.51
50226;BME280;36113;50.742;6.432;2023-06-14T13:10:49;98724.94;;;25.96;27.36
50226;BME280;36113;50.742;6.432;2023-06-14T13:13:15;98701.53;;;25.74;27.01